sensor_id;sensor_type;location;lat;lon;timestamp;pressure;altitude;pressure_sealevel;temperature;humidity
40730;BME280;26418;50.070;8.436;2024-03-25T00:00:13;99146.41;;;6.40;79.05
40730;BME280;26418;50.070;8.436;2024-03-25T00:02:40;99152.88;;;6.39;79.35
40730;BME280;26418;50.070;8.436;2024-03-25T00:05:06;99148.31;;;6.40;79.55
40730;BME280;26418;50.070;8.436;2024-03-25T00:07:35;99151.88;;;6.35;79.20
40730;BME280;26418;50.070;8.436;2024-03-25T00:10:01;99152.09;;;6.39;79.22
40730;BME280;26418;50.070;8.436;2024-03-25T00:12:27;99153.16;;;6.38;78.49
40730;BME280;26418;50.070;8.436;2024-03-25T00:14:52;99151.34;;;6.33;78.98
40730;BME280;26418;50.070;8.436;2024-03-25T00:17:18;99151.13;;;6.29;78.93
40730;BME280;26418;50.070;8.436;2024-03-25T00:19:45;99156.94;;;6.37;78.53
40730;BME280;26418;50.070;8.436;2024-03-25T00:22:19;99161.22;;;6.38;78.22
40730;BME280;26418;50.070;8.436;2024-03-25T00:24:46;99148.97;;;6.32;78.35
40730;BME280;26418;50.070;8.436;2024-03-25T00:27:12;99155.63;;;6.34;78.26
40730;BME280;26418;50.070;8.436;2024-03-25T00:29:38;99157.03;;;6.32;78.58
40730;BME280;26418;50.070;8.436;2024-03-25T00:32:04;99149.31;;;6.25;78.53
40730;BME280;26418;50.070;8.436;2024-03-25T00:34:34;99137.84;;;6.19;78.91
40730;BME280;26418;50.070;8.436;2024-03-25T00:37:00;99149.84;;;6.27;78.51
40730;BME280;26418;50.070;8.436;2024-03-25T00:39:26;99140.53;;;6.19;78.78
40730;BME280;26418;50.070;8.436;2024-03-25T00:41:53;99153.97;;;6.19;79.35
40730;BME280;26418;50.070;8.436;2024-03-25T00:44:19;99154.25;;;6.18;79.33
40730;BME280;26418;50.070;8.436;2024-03-25T00:46:45;99161.22;;;6.19;79.18
40730;BME280;26418;50.070;8.436;2024-03-25T00:49:10;99156.06;;;6.22;79.62
40730;BME280;26418;50.070;8.436;2024-03-25T00:51:37;99161.22;;;6.19;79.91
40730;BME280;26418;50.070;8.436;2024-03-25T00:54:02;99166.81;;;6.22;79.72
40730;BME280;26418;50.070;8.436;2024-03-25T00:56:29;99158.75;;;6.22;79.70
40730;BME280;26418;50.070;8.436;2024-03-25T00:58:56;99162.22;;;6.23;79.78
40730;BME280;26418;50.070;8.436;2024-03-25T01:01:23;99164.44;;;6.21;80.12
40730;BME280;26418;50.070;8.436;2024-03-25T01:03:49;99156.13;;;6.17;80.36
40730;BME280;26418;50.070;8.436;2024-03-25T01:06:14;99155.84;;;6.19;80.23
40730;BME280;26418;50.070;8.436;2024-03-25T01:08:40;99161.75;;;6.21;79.51
40730;BME280;26418;50.070;8.436;2024-03-25T01:11:11;99160.41;;;6.18;79.69
40730;BME280;26418;50.070;8.436;2024-03-25T01:13:37;99152.97;;;6.15;78.92
40730;BME280;26418;50.070;8.436;2024-03-25T01:16:02;99161.00;;;6.15;78.39
40730;BME280;26418;50.070;8.436;2024-03-25T01:18:28;99164.78;;;6.14;79.15
40730;BME280;26418;50.070;8.436;2024-03-25T01:20:54;99157.47;;;6.20;78.19
40730;BME280;26418;50.070;8.436;2024-03-25T01:23:20;99164.44;;;6.21;78.17
40730;BME280;26418;50.070;8.436;2024-03-25T01:25:45;99160.41;;;6.18;78.10
40730;BME280;26418;50.070;8.436;2024-03-25T01:28:14;99152.13;;;6.14;77.67
40730;BME280;26418;50.070;8.436;2024-03-25T01:30:40;99156.72;;;6.14;78.22
40730;BME280;26418;50.070;8.436;2024-03-25T01:33:08;99160.78;;;6.11;78.40
40730;BME280;26418;50.070;8.436;2024-03-25T01:35:34;99139.66;;;6.05;78.55
40730;BME280;26418;50.070;8.436;2024-03-25T01:37:59;99154.03;;;6.14;77.82
40730;BME280;26418;50.070;8.436;2024-03-25T01:40:28;99162.59;;;6.16;78.08
40730;BME280;26418;50.070;8.436;2024-03-25T01:42:57;99158.59;;;6.13;78.12
40730;BME280;26418;50.070;8.436;2024-03-25T01:45:37;99157.81;;;6.13;77.78
40730;BME280;26418;50.070;8.436;2024-03-25T01:48:07;99164.56;;;6.10;78.27
40730;BME280;26418;50.070;8.436;2024-03-25T01:50:40;99154.38;;;6.07;78.85
40730;BME280;26418;50.070;8.436;2024-03-25T01:53:07;99161.13;;;6.05;79.38
40730;BME280;26418;50.070;8.436;2024-03-25T01:55:37;99162.78;;;6.01;79.54
40730;BME280;26418;50.070;8.436;2024-03-25T01:58:04;99152.63;;;5.97;79.97
40730;BME280;26418;50.070;8.436;2024-03-25T02:00:33;99161.75;;;5.96;79.81
40730;BME280;26418;50.070;8.436;2024-03-25T02:02:59;99154.84;;;5.90;80.22
40730;BME280;26418;50.070;8.436;2024-03-25T02:05:25;99162.69;;;5.87;80.34
40730;BME280;26418;50.070;8.436;2024-03-25T02:07:55;99171.53;;;5.87;80.76
40730;BME280;26418;50.070;8.436;2024-03-25T02:10:21;99170.50;;;5.83;80.41
40730;BME280;26418;50.070;8.436;2024-03-25T02:12:49;99177.22;;;5.80;80.62
40730;BME280;26418;50.070;8.436;2024-03-25T02:15:15;99180.13;;;5.84;80.71
40730;BME280;26418;50.070;8.436;2024-03-25T02:17:42;99172.91;;;5.85;81.07
40730;BME280;26418;50.070;8.436;2024-03-25T02:20:10;99173.66;;;5.90;79.67
40730;BME280;26418;50.070;8.436;2024-03-25T02:22:37;99176.34;;;5.90;79.47
40730;BME280;26418;50.070;8.436;2024-03-25T02:25:07;99173.13;;;5.88;79.61
40730;BME280;26418;50.070;8.436;2024-03-25T02:27:34;99173.41;;;5.87;79.40
40730;BME280;26418;50.070;8.436;2024-03-25T02:30:17;99172.38;;;5.82;79.46
40730;BME280;26418;50.070;8.436;2024-03-25T02:32:43;99171.53;;;5.87;78.92
40730;BME280;26418;50.070;8.436;2024-03-25T02:35:14;99173.41;;;5.87;78.37
40730;BME280;26418;50.070;8.436;2024-03-25T02:37:41;99172.69;;;5.81;78.75
40730;BME280;26418;50.070;8.436;2024-03-25T02:40:08;99171.63;;;5.77;79.45
40730;BME280;26418;50.070;8.436;2024-03-25T02:42:37;99174.41;;;5.72;79.35
40730;BME280;26418;50.070;8.436;2024-03-25T02:45:17;99167.53;;;5.60;79.91
40730;BME280;26418;50.070;8.436;2024-03-25T02:47:49;99176.66;;;5.59;81.26
40730;BME280;26418;50.070;8.436;2024-03-25T02:50:15;99179.97;;;5.51;81.55
40730;BME280;26418;50.070;8.436;2024-03-25T02:52:41;99179.53;;;5.44;82.04
40730;BME280;26418;50.070;8.436;2024-03-25T02:55:07;99182.25;;;5.39;82.55
40730;BME280;26418;50.070;8.436;2024-03-25T02:57:32;99178.28;;;5.36;82.38
40730;BME280;26418;50.070;8.436;2024-03-25T03:00:01;99174.53;;;5.32;82.12
40730;BME280;26418;50.070;8.436;2024-03-25T03:02:33;99180.94;;;5.36;81.73
40730;BME280;26418;50.070;8.436;2024-03-25T03:04:58;99182.28;;;5.33;81.78
40730;BME280;26418;50.070;8.436;2024-03-25T03:07:27;99183.72;;;5.26;81.71
40730;BME280;26418;50.070;8.436;2024-03-25T03:09:53;99174.41;;;5.18;82.00
40730;BME280;26418;50.070;8.436;2024-03-25T03:12:18;99169.34;;;5.16;82.69
40730;BME280;26418;50.070;8.436;2024-03-25T03:14:53;99169.66;;;5.10;82.90
40730;BME280;26418;50.070;8.436;2024-03-25T03:17:18;99175.03;;;5.10;83.23
40730;BME280;26418;50.070;8.436;2024-03-25T03:19:47;99168.41;;;5.02;83.72
40730;BME280;26418;50.070;8.436;2024-03-25T03:22:19;99172.16;;;5.01;84.07
40730;BME280;26418;50.070;8.436;2024-03-25T03:24:44;99182.28;;;5.09;83.69
40730;BME280;26418;50.070;8.436;2024-03-25T03:27:09;99177.22;;;5.08;83.54
40730;BME280;26418;50.070;8.436;2024-03-25T03:29:47;99186.81;;;5.09;83.94
40730;BME280;26418;50.070;8.436;2024-03-25T03:32:13;99178.78;;;5.09;83.90
40730;BME280;26418;50.070;8.436;2024-03-25T03:34:38;99178.78;;;5.09;83.50
40730;BME280;26418;50.070;8.436;2024-03-25T03:37:04;99184.38;;;5.12;83.54
40730;BME280;26418;50.070;8.436;2024-03-25T03:39:32;99172.88;;;5.12;83.40
40730;BME280;26418;50.070;8.436;2024-03-25T03:41:58;99182.56;;;5.08;83.58
40730;BME280;26418;50.070;8.436;2024-03-25T03:44:24;99184.47;;;5.02;84.53
40730;BME280;26418;50.070;8.436;2024-03-25T03:46:49;99170.56;;;5.00;83.50
40730;BME280;26418;50.070;8.436;2024-03-25T03:49:15;99174.13;;;4.90;83.94
40730;BME280;26418;50.070;8.436;2024-03-25T03:51:41;99181.94;;;4.86;84.58
40730;BME280;26418;50.070;8.436;2024-03-25T03:54:06;99175.28;;;4.79;84.89
40730;BME280;26418;50.070;8.436;2024-03-25T03:56:35;99172.91;;;4.72;85.23
40730;BME280;26418;50.070;8.436;2024-03-25T03:59:03;99187.69;;;4.69;85.50
40730;BME280;26418;50.070;8.436;2024-03-25T04:01:29;99173.28;;;4.60;85.83
40730;BME280;26418;50.070;8.436;2024-03-25T04:04:01;99168.75;;;4.55;85.93
40730;BME280;26418;50.070;8.436;2024-03-25T04:06:26;99166.41;;;4.49;86.09
40730;BME280;26418;50.070;8.436;2024-03-25T04:08:55;99179.53;;;4.45;86.49
40730;BME280;26418;50.070;8.436;2024-03-25T04:11:20;99183.66;;;4.32;86.86
40730;BME280;26418;50.070;8.436;2024-03-25T04:13:46;99189.31;;;4.25;87.36
40730;BME280;26418;50.070;8.436;2024-03-25T04:16:12;99184.53;;;4.17;88.06
40730;BME280;26418;50.070;8.436;2024-03-25T04:18:38;99176.50;;;4.12;88.50
40730;BME280;26418;50.070;8.436;2024-03-25T04:21:03;99184.28;;;4.08;88.70
40730;BME280;26418;50.070;8.436;2024-03-25T04:23:32;99179.50;;;4.05;88.88
40730;BME280;26418;50.070;8.436;2024-03-25T04:26:01;99188.31;;;4.06;89.66
40730;BME280;26418;50.070;8.436;2024-03-25T04:28:29;99177.66;;;4.01;89.63
40730;BME280;26418;50.070;8.436;2024-03-25T04:30:58;99190.25;;;3.95;89.74
40730;BME280;26418;50.070;8.436;2024-03-25T04:33:23;99170.75;;;3.89;90.11
40730;BME280;26418;50.070;8.436;2024-03-25T04:35:49;99183.31;;;3.89;90.55
40730;BME280;26418;50.070;8.436;2024-03-25T04:38:17;99169.69;;;3.85;90.86
40730;BME280;26418;50.070;8.436;2024-03-25T04:40:43;99177.69;;;3.90;90.90
40730;BME280;26418;50.070;8.436;2024-03-25T04:43:12;99180.66;;;3.89;91.07
40730;BME280;26418;50.070;8.436;2024-03-25T04:45:37;99175.03;;;3.85;91.21
40730;BME280;26418;50.070;8.436;2024-03-25T04:48:04;99190.53;;;3.88;91.21
40730;BME280;26418;50.070;8.436;2024-03-25T04:50:30;99171.03;;;3.83;91.26
40730;BME280;26418;50.070;8.436;2024-03-25T04:52:59;99190.28;;;3.85;91.77
40730;BME280;26418;50.070;8.436;2024-03-25T04:55:25;99198.06;;;3.81;91.85
40730;BME280;26418;50.070;8.436;2024-03-25T04:57:50;99195.91;;;3.78;91.80
40730;BME280;26418;50.070;8.436;2024-03-25T05:00:16;99199.16;;;3.75;92.34
40730;BME280;26418;50.070;8.436;2024-03-25T05:02:48;99203.97;;;3.73;92.40
40730;BME280;26418;50.070;8.436;2024-03-25T05:05:17;99203.69;;;3.74;92.71
40730;BME280;26418;50.070;8.436;2024-03-25T05:07:45;99201.31;;;3.68;92.74
40730;BME280;26418;50.070;8.436;2024-03-25T05:10:11;99209.06;;;3.69;92.70
40730;BME280;26418;50.070;8.436;2024-03-25T05:12:36;99215.75;;;3.67;92.88
40730;BME280;26418;50.070;8.436;2024-03-25T05:15:07;99209.88;;;3.65;92.95
40730;BME280;26418;50.070;8.436;2024-03-25T05:17:32;99208.00;;;3.65;92.91
40730;BME280;26418;50.070;8.436;2024-03-25T05:19:58;99205.38;;;3.55;93.08
40730;BME280;26418;50.070;8.436;2024-03-25T05:22:23;99203.25;;;3.46;93.22
40730;BME280;26418;50.070;8.436;2024-03-25T05:24:49;99220.34;;;3.45;93.58
40730;BME280;26418;50.070;8.436;2024-03-25T05:27:15;99214.47;;;3.43;94.36
40730;BME280;26418;50.070;8.436;2024-03-25T05:29:41;99220.34;;;3.40;94.02
40730;BME280;26418;50.070;8.436;2024-03-25T05:32:06;99220.88;;;3.32;94.43
40730;BME280;26418;50.070;8.436;2024-03-25T05:34:32;99227.84;;;3.33;94.43
40730;BME280;26418;50.070;8.436;2024-03-25T05:36:57;99232.13;;;3.29;94.73
40730;BME280;26418;50.070;8.436;2024-03-25T05:39:23;99238.00;;;3.31;94.78
40730;BME280;26418;50.070;8.436;2024-03-25T05:41:49;99233.72;;;3.30;94.54
40730;BME280;26418;50.070;8.436;2024-03-25T05:44:18;99235.03;;;3.38;94.21
40730;BME280;26418;50.070;8.436;2024-03-25T05:46:44;99227.84;;;3.38;93.89
40730;BME280;26418;50.070;8.436;2024-03-25T05:49:10;99239.06;;;3.40;93.93
40730;BME280;26418;50.070;8.436;2024-03-25T05:51:36;99232.38;;;3.38;93.20
40730;BME280;26418;50.070;8.436;2024-03-25T05:54:01;99239.88;;;3.36;93.38
40730;BME280;26418;50.070;8.436;2024-03-25T05:56:27;99231.03;;;3.35;93.59
40730;BME280;26418;50.070;8.436;2024-03-25T05:58:59;99227.84;;;3.33;93.75
40730;BME280;26418;50.070;8.436;2024-03-25T06:01:25;99229.97;;;3.36;93.90
40730;BME280;26418;50.070;8.436;2024-03-25T06:03:51;99231.03;;;3.35;93.98
40730;BME280;26418;50.070;8.436;2024-03-25T06:06:17;99236.66;;;3.39;94.04
40730;BME280;26418;50.070;8.436;2024-03-25T06:08:43;99237.72;;;3.43;94.28
40730;BME280;26418;50.070;8.436;2024-03-25T06:11:08;99238.78;;;3.47;94.19
40730;BME280;26418;50.070;8.436;2024-03-25T06:13:34;99244.66;;;3.49;94.23
40730;BME280;26418;50.070;8.436;2024-03-25T06:15:59;99244.13;;;3.52;94.36
40730;BME280;26418;50.070;8.436;2024-03-25T06:18:25;99232.88;;;3.55;94.28
40730;BME280;26418;50.070;8.436;2024-03-25T06:20:51;99239.81;;;3.61;93.93
40730;BME280;26418;50.070;8.436;2024-03-25T06:23:23;99245.41;;;3.75;93.74
40730;BME280;26418;50.070;8.436;2024-03-25T06:25:50;99257.44;;;3.83;93.04
40730;BME280;26418;50.070;8.436;2024-03-25T06:28:16;99247.22;;;3.96;92.37
40730;BME280;26418;50.070;8.436;2024-03-25T06:30:41;99248.81;;;4.02;91.91
40730;BME280;26418;50.070;8.436;2024-03-25T06:33:28;99257.06;;;4.11;91.69
40730;BME280;26418;50.070;8.436;2024-03-25T06:36:12;99256.53;;;4.14;91.50
40730;BME280;26418;50.070;8.436;2024-03-25T06:38:38;99261.31;;;4.22;91.32
40730;BME280;26418;50.070;8.436;2024-03-25T06:41:03;99269.31;;;4.32;90.84
40730;BME280;26418;50.070;8.436;2024-03-25T06:43:32;99271.41;;;4.40;90.90
40730;BME280;26418;50.070;8.436;2024-03-25T06:45:58;99276.44;;;4.47;90.71
40730;BME280;26418;50.070;8.436;2024-03-25T06:48:23;99271.59;;;4.54;90.24
40730;BME280;26418;50.070;8.436;2024-03-25T06:50:58;99264.03;;;4.62;89.94
40730;BME280;26418;50.070;8.436;2024-03-25T06:53:24;99265.63;;;4.68;89.71
40730;BME280;26418;50.070;8.436;2024-03-25T06:56:15;99264.75;;;4.78;89.44
40730;BME280;26418;50.070;8.436;2024-03-25T06:58:39;99263.66;;;4.84;87.91
40730;BME280;26418;50.070;8.436;2024-03-25T07:01:06;99263.34;;;4.91;87.49
40730;BME280;26418;50.070;8.436;2024-03-25T07:03:35;99261.72;;;4.95;86.77
40730;BME280;26418;50.070;8.436;2024-03-25T07:06:01;99261.91;;;5.03;86.45
40730;BME280;26418;50.070;8.436;2024-03-25T07:08:32;99258.41;;;5.08;86.05
40730;BME280;26418;50.070;8.436;2024-03-25T07:10:58;99247.16;;;5.06;85.93
40730;BME280;26418;50.070;8.436;2024-03-25T07:13:24;99262.84;;;5.23;85.65
40730;BME280;26418;50.070;8.436;2024-03-25T07:15:52;99272.97;;;5.31;85.66
40730;BME280;26418;50.070;8.436;2024-03-25T07:18:18;99269.69;;;5.40;85.53
40730;BME280;26418;50.070;8.436;2024-03-25T07:20:47;99251.16;;;5.38;84.30
40730;BME280;26418;50.070;8.436;2024-03-25T07:23:12;99269.53;;;5.55;83.79
40730;BME280;26418;50.070;8.436;2024-03-25T07:25:38;99265.19;;;5.59;83.65
40730;BME280;26418;50.070;8.436;2024-03-25T07:28:08;99271.22;;;5.75;82.92
40730;BME280;26418;50.070;8.436;2024-03-25T07:30:34;99272.50;;;5.83;82.10
40730;BME280;26418;50.070;8.436;2024-03-25T07:32:59;99269.97;;;5.92;80.31
40730;BME280;26418;50.070;8.436;2024-03-25T07:35:25;99271.50;;;5.98;80.10
40730;BME280;26418;50.070;8.436;2024-03-25T07:37:51;99267.44;;;6.06;79.68
40730;BME280;26418;50.070;8.436;2024-03-25T07:40:20;99267.66;;;6.09;78.50
40730;BME280;26418;50.070;8.436;2024-03-25T07:42:46;99271.84;;;6.21;78.93
40730;BME280;26418;50.070;8.436;2024-03-25T07:45:12;99265.44;;;6.36;78.41
40730;BME280;26418;50.070;8.436;2024-03-25T07:47:37;99271.22;;;6.48;78.23
40730;BME280;26418;50.070;8.436;2024-03-25T07:50:06;99268.09;;;6.60;76.81
40730;BME280;26418;50.070;8.436;2024-03-25T07:52:35;99268.22;;;6.69;76.05
40730;BME280;26418;50.070;8.436;2024-03-25T07:55:05;99251.97;;;6.60;73.87
40730;BME280;26418;50.070;8.436;2024-03-25T07:57:31;99272.09;;;6.63;74.14
40730;BME280;26418;50.070;8.436;2024-03-25T08:00:00;99264.91;;;6.58;74.26
40730;BME280;26418;50.070;8.436;2024-03-25T08:02:28;99269.31;;;6.68;74.49
40730;BME280;26418;50.070;8.436;2024-03-25T08:04:55;99273.38;;;6.84;74.60
40730;BME280;26418;50.070;8.436;2024-03-25T08:07:21;99270.28;;;6.96;73.87
40730;BME280;26418;50.070;8.436;2024-03-25T08:09:46;99269.63;;;7.04;73.89
40730;BME280;26418;50.070;8.436;2024-03-25T08:12:12;99261.88;;;7.17;73.16
40730;BME280;26418;50.070;8.436;2024-03-25T08:14:37;99260.22;;;7.21;71.60
40730;BME280;26418;50.070;8.436;2024-03-25T08:17:03;99257.59;;;7.16;71.27
40730;BME280;26418;50.070;8.436;2024-03-25T08:19:32;99256.88;;;7.10;71.50
40730;BME280;26418;50.070;8.436;2024-03-25T08:21:57;99262.75;;;7.12;71.08
40730;BME280;26418;50.070;8.436;2024-03-25T08:24:23;99259.19;;;7.17;71.17
40730;BME280;26418;50.070;8.436;2024-03-25T08:26:51;99253.72;;;7.22;71.42
40730;BME280;26418;50.070;8.436;2024-03-25T08:29:17;99255.53;;;7.27;70.32
40730;BME280;26418;50.070;8.436;2024-03-25T08:31:45;99248.69;;;7.34;69.68
40730;BME280;26418;50.070;8.436;2024-03-25T08:34:14;99251.06;;;7.36;69.84
40730;BME280;26418;50.070;8.436;2024-03-25T08:36:39;99246.81;;;7.49;69.81
40730;BME280;26418;50.070;8.436;2024-03-25T08:39:05;99255.34;;;7.84;78.72
40730;BME280;26418;50.070;8.436;2024-03-25T08:41:30;99245.75;;;8.19;78.67
40730;BME280;26418;50.070;8.436;2024-03-25T08:43:56;99239.13;;;8.54;69.30
40730;BME280;26418;50.070;8.436;2024-03-25T08:46:21;99242.69;;;8.77;70.85
40730;BME280;26418;50.070;8.436;2024-03-25T08:48:47;99253.78;;;8.75;64.08
40730;BME280;26418;50.070;8.436;2024-03-25T08:51:12;99242.13;;;8.66;63.72
40730;BME280;26418;50.070;8.436;2024-03-25T08:53:41;99259.63;;;8.77;66.49
40730;BME280;26418;50.070;8.436;2024-03-25T08:56:06;99256.44;;;8.89;64.02
40730;BME280;26418;50.070;8.436;2024-03-25T08:58:32;99251.03;;;8.89;63.09
40730;BME280;26418;50.070;8.436;2024-03-25T09:00:57;99238.38;;;8.99;63.56
40730;BME280;26418;50.070;8.436;2024-03-25T09:03:26;99243.16;;;9.24;63.43
40730;BME280;26418;50.070;8.436;2024-03-25T09:05:51;99240.56;;;9.42;61.90
40730;BME280;26418;50.070;8.436;2024-03-25T09:08:20;99231.47;;;9.60;61.56
40730;BME280;26418;50.070;8.436;2024-03-25T09:10:45;99233.13;;;9.79;59.36
40730;BME280;26418;50.070;8.436;2024-03-25T09:13:35;99236.38;;;9.99;59.33
40730;BME280;26418;50.070;8.436;2024-03-25T09:16:00;99230.78;;;9.95;57.69
40730;BME280;26418;50.070;8.436;2024-03-25T09:18:26;99228.72;;;9.92;57.95
40730;BME280;26418;50.070;8.436;2024-03-25T09:20:52;99227.03;;;10.05;58.40
40730;BME280;26418;50.070;8.436;2024-03-25T09:23:18;99233.25;;;10.23;57.27
40730;BME280;26418;50.070;8.436;2024-03-25T09:25:53;99231.03;;;10.34;56.46
40730;BME280;26418;50.070;8.436;2024-03-25T09:28:19;99228.22;;;10.48;56.83
40730;BME280;26418;50.070;8.436;2024-03-25T09:30:44;99229.06;;;10.66;55.38
40730;BME280;26418;50.070;8.436;2024-03-25T09:33:13;99228.41;;;10.69;55.02
40730;BME280;26418;50.070;8.436;2024-03-25T09:35:42;99221.06;;;10.87;55.38
40730;BME280;26418;50.070;8.436;2024-03-25T09:38:08;99215.50;;;11.01;53.87
40730;BME280;26418;50.070;8.436;2024-03-25T09:40:39;99218.84;;;11.15;53.72
40730;BME280;26418;50.070;8.436;2024-03-25T09:43:44;99210.00;;;11.45;52.30
40730;BME280;26418;50.070;8.436;2024-03-25T09:46:13;99207.44;;;11.48;51.75
40730;BME280;26418;50.070;8.436;2024-03-25T09:48:39;99202.22;;;11.35;51.56
40730;BME280;26418;50.070;8.436;2024-03-25T09:51:05;99198.69;;;11.43;51.50
40730;BME280;26418;50.070;8.436;2024-03-25T09:53:31;99199.28;;;11.57;51.44
40730;BME280;26418;50.070;8.436;2024-03-25T09:55:57;99196.97;;;11.77;51.07
40730;BME280;26418;50.070;8.436;2024-03-25T09:58:24;99192.59;;;11.93;50.88
40730;BME280;26418;50.070;8.436;2024-03-25T10:00:53;99194.50;;;12.23;49.95
40730;BME280;26418;50.070;8.436;2024-03-25T10:03:29;99178.25;;;12.44;51.31
40730;BME280;26418;50.070;8.436;2024-03-25T10:05:55;99175.25;;;12.79;56.63
40730;BME280;26418;50.070;8.436;2024-03-25T10:08:21;99161.31;;;13.14;50.64
40730;BME280;26418;50.070;8.436;2024-03-25T10:10:47;99166.03;;;13.39;50.52
40730;BME280;26418;50.070;8.436;2024-03-25T10:13:16;99158.03;;;13.55;47.24
40730;BME280;26418;50.070;8.436;2024-03-25T10:15:41;99152.56;;;13.67;47.49
40730;BME280;26418;50.070;8.436;2024-03-25T10:18:13;99145.22;;;13.92;49.14
40730;BME280;26418;50.070;8.436;2024-03-25T10:20:46;99150.47;;;14.26;46.95
40730;BME280;26418;50.070;8.436;2024-03-25T10:23:12;99137.31;;;14.15;44.19
40730;BME280;26418;50.070;8.436;2024-03-25T10:25:38;99139.47;;;14.22;44.49
40730;BME280;26418;50.070;8.436;2024-03-25T10:28:03;99133.72;;;14.11;44.18
40730;BME280;26418;50.070;8.436;2024-03-25T10:30:30;99136.31;;;14.20;46.09
40730;BME280;26418;50.070;8.436;2024-03-25T10:35:28;99123.63;;;14.12;43.12
40730;BME280;26418;50.070;8.436;2024-03-25T10:38:02;99131.28;;;13.81;42.58
40730;BME280;26418;50.070;8.436;2024-03-25T10:40:30;99123.78;;;13.91;43.07
40730;BME280;26418;50.070;8.436;2024-03-25T10:43:03;99113.56;;;14.00;42.33
40730;BME280;26418;50.070;8.436;2024-03-25T10:45:34;99115.88;;;13.86;43.10
40730;BME280;26418;50.070;8.436;2024-03-25T10:48:04;99117.03;;;13.60;42.52
40730;BME280;26418;50.070;8.436;2024-03-25T10:50:32;99110.44;;;13.36;42.96
40730;BME280;26418;50.070;8.436;2024-03-25T10:53:04;99102.66;;;12.88;42.84
40730;BME280;26418;50.070;8.436;2024-03-25T10:55:31;99105.81;;;12.78;44.05
40730;BME280;26418;50.070;8.436;2024-03-25T10:57:59;99105.63;;;12.50;43.92
40730;BME280;26418;50.070;8.436;2024-03-25T11:00:26;99108.50;;;12.66;44.66
40730;BME280;26418;50.070;8.436;2024-03-25T11:02:52;99099.50;;;12.86;44.46
40730;BME280;26418;50.070;8.436;2024-03-25T11:05:18;99108.66;;;13.40;44.55
40730;BME280;26418;50.070;8.436;2024-03-25T11:07:44;99095.47;;;13.92;43.11
40730;BME280;26418;50.070;8.436;2024-03-25T11:10:15;99095.88;;;14.06;42.32
40730;BME280;26418;50.070;8.436;2024-03-25T11:12:49;99088.38;;;14.44;42.15
40730;BME280;26418;50.070;8.436;2024-03-25T11:15:14;99088.50;;;14.76;41.62
40730;BME280;26418;50.070;8.436;2024-03-25T11:17:48;99085.34;;;14.74;39.80
40730;BME280;26418;50.070;8.436;2024-03-25T11:20:16;99081.94;;;14.77;40.88
40730;BME280;26418;50.070;8.436;2024-03-25T11:22:49;99075.09;;;15.15;40.39
40730;BME280;26418;50.070;8.436;2024-03-25T11:25:16;99070.41;;;15.16;39.82
40730;BME280;26418;50.070;8.436;2024-03-25T11:27:43;99067.97;;;15.11;40.08
40730;BME280;26418;50.070;8.436;2024-03-25T11:30:13;99064.44;;;15.26;40.45
40730;BME280;26418;50.070;8.436;2024-03-25T11:32:46;99059.97;;;15.69;40.08
40730;BME280;26418;50.070;8.436;2024-03-25T11:35:12;99053.81;;;15.72;38.05
40730;BME280;26418;50.070;8.436;2024-03-25T11:37:40;99054.84;;;15.84;37.91
40730;BME280;26418;50.070;8.436;2024-03-25T11:40:07;99041.88;;;15.97;37.24
40730;BME280;26418;50.070;8.436;2024-03-25T11:42:33;99033.84;;;16.24;37.72
40730;BME280;26418;50.070;8.436;2024-03-25T11:45:00;99025.56;;;16.40;38.21
40730;BME280;26418;50.070;8.436;2024-03-25T11:47:27;99014.59;;;16.59;36.86
40730;BME280;26418;50.070;8.436;2024-03-25T11:49:55;99015.38;;;16.83;37.34
40730;BME280;26418;50.070;8.436;2024-03-25T11:52:21;99011.16;;;16.86;35.52
40730;BME280;26418;50.070;8.436;2024-03-25T11:54:54;99003.81;;;16.90;37.54
40730;BME280;26418;50.070;8.436;2024-03-25T11:57:20;99014.31;;;16.64;36.42
40730;BME280;26418;50.070;8.436;2024-03-25T11:59:46;99009.50;;;16.58;38.05
40730;BME280;26418;50.070;8.436;2024-03-25T12:02:17;99008.97;;;16.29;36.94
40730;BME280;26418;50.070;8.436;2024-03-25T12:04:43;98991.28;;;16.19;39.19
40730;BME280;26418;50.070;8.436;2024-03-25T12:07:14;99008.84;;;16.22;36.89
40730;BME280;26418;50.070;8.436;2024-03-25T12:09:39;98996.97;;;16.10;37.82
40730;BME280;26418;50.070;8.436;2024-03-25T12:12:27;98981.88;;;15.97;38.89
40730;BME280;26418;50.070;8.436;2024-03-25T12:14:53;98982.91;;;15.88;38.82
40730;BME280;26418;50.070;8.436;2024-03-25T12:17:19;98992.09;;;16.00;39.48
40730;BME280;26418;50.070;8.436;2024-03-25T12:20:19;98981.31;;;16.07;39.67
40730;BME280;26418;50.070;8.436;2024-03-25T12:22:44;98986.00;;;16.07;39.30
40730;BME280;26418;50.070;8.436;2024-03-25T12:25:10;98984.41;;;15.86;37.93
40730;BME280;26418;50.070;8.436;2024-03-25T12:27:39;98977.81;;;15.87;38.48
40730;BME280;26418;50.070;8.436;2024-03-25T12:30:09;98969.56;;;15.83;39.51
40730;BME280;26418;50.070;8.436;2024-03-25T12:35:09;98956.75;;;15.68;39.35
40730;BME280;26418;50.070;8.436;2024-03-25T12:37:43;98960.06;;;15.77;39.14
40730;BME280;26418;50.070;8.436;2024-03-25T12:40:14;98954.31;;;15.63;39.56
40730;BME280;26418;50.070;8.436;2024-03-25T12:42:52;98949.28;;;15.65;39.90
40730;BME280;26418;50.070;8.436;2024-03-25T12:45:19;98940.91;;;15.54;39.20
40730;BME280;26418;50.070;8.436;2024-03-25T12:47:45;98939.72;;;15.35;38.97
40730;BME280;26418;50.070;8.436;2024-03-25T12:50:10;98934.38;;;14.87;40.03
40730;BME280;26418;50.070;8.436;2024-03-25T12:52:36;98933.50;;;14.99;41.12
40730;BME280;26418;50.070;8.436;2024-03-25T12:55:02;98934.16;;;15.12;40.82
40730;BME280;26418;50.070;8.436;2024-03-25T12:57:29;98925.59;;;15.10;40.19
40730;BME280;26418;50.070;8.436;2024-03-25T12:59:54;98928.38;;;15.14;40.75
40730;BME280;26418;50.070;8.436;2024-03-25T13:02:20;98918.47;;;15.05;39.66
40730;BME280;26418;50.070;8.436;2024-03-25T13:04:49;98900.44;;;14.81;40.13
40730;BME280;26418;50.070;8.436;2024-03-25T13:07:14;98915.44;;;14.75;39.41
40730;BME280;26418;50.070;8.436;2024-03-25T13:09:40;98896.25;;;14.68;40.66
40730;BME280;26418;50.070;8.436;2024-03-25T13:12:05;98912.00;;;14.78;40.35
40730;BME280;26418;50.070;8.436;2024-03-25T13:14:31;98910.44;;;14.61;39.34